Terminal Aerodrome Forecast
Issued by NWS Tuscon, AZ

Home | Current Version | Previous Version | Text Only | Print | Product List | Glossary On
Versions: 1 2 3 4 5 6 7 8 9 10 11 12 13 14 15 16 17 18 19 20
000
FTUS45 KTWC 250500
TAFDUG
TAF
KDUG 250520Z 2506/2606 23008KT P6SM SCT120
     FM250800 16006KT P6SM SCT200
     FM251800 19007KT P6SM FEW050 SCT250
     FM252100 24008KT P6SM VCSH SCT060 BKN150
     FM260500 25006KT P6SM SCT060 BKN180=

USA.gov is the U.S. government's official web portal to all federal, state and local government web resources and services.